sensor_id;sensor_type;location;lat;lon;timestamp;P1;durP1;ratioP1;P2;durP2;ratioP2
64011;SDS011;50211;52.768;12.124;2022-12-24T00:02:18;23.93;;;8.53;;
64011;SDS011;50211;52.768;12.124;2022-12-24T00:04:44;25.40;;;9.23;;
64011;SDS011;50211;52.768;12.124;2022-12-24T00:07:10;27.73;;;8.13;;
64011;SDS011;50211;52.768;12.124;2022-12-24T00:09:35;23.60;;;8.50;;
64011;SDS011;50211;52.768;12.124;2022-12-24T00:12:01;28.77;;;7.97;;
64011;SDS011;50211;52.768;12.124;2022-12-24T00:14:26;22.80;;;7.80;;
64011;SDS011;50211;52.768;12.124;2022-12-24T00:16:52;26.20;;;7.37;;
64011;SDS011;50211;52.768;12.124;2022-12-24T00:19:18;21.47;;;8.40;;
64011;SDS011;50211;52.768;12.124;2022-12-24T00:21:43;19.30;;;7.37;;
64011;SDS011;50211;52.768;12.124;2022-12-24T00:24:09;19.43;;;8.13;;
64011;SDS011;50211;52.768;12.124;2022-12-24T00:26:34;21.20;;;8.03;;
64011;SDS011;50211;52.768;12.124;2022-12-24T00:29:00;20.67;;;7.50;;
64011;SDS011;50211;52.768;12.124;2022-12-24T00:31:25;16.40;;;6.80;;
64011;SDS011;50211;52.768;12.124;2022-12-24T00:33:51;23.07;;;7.67;;
64011;SDS011;50211;52.768;12.124;2022-12-24T00:36:17;32.30;;;8.23;;
64011;SDS011;50211;52.768;12.124;2022-12-24T00:38:43;24.90;;;7.47;;
64011;SDS011;50211;52.768;12.124;2022-12-24T00:41:10;20.83;;;8.20;;
64011;SDS011;50211;52.768;12.124;2022-12-24T00:43:58;19.83;;;7.60;;
64011;SDS011;50211;52.768;12.124;2022-12-24T00:46:26;16.33;;;7.10;;
64011;SDS011;50211;52.768;12.124;2022-12-24T00:48:53;16.30;;;6.67;;
64011;SDS011;50211;52.768;12.124;2022-12-24T00:51:18;21.47;;;7.23;;
64011;SDS011;50211;52.768;12.124;2022-12-24T00:53:44;17.70;;;7.10;;
64011;SDS011;50211;52.768;12.124;2022-12-24T00:56:10;15.63;;;7.07;;
64011;SDS011;50211;52.768;12.124;2022-12-24T00:58:36;18.13;;;7.40;;
64011;SDS011;50211;52.768;12.124;2022-12-24T01:01:01;17.83;;;7.00;;
64011;SDS011;50211;52.768;12.124;2022-12-24T01:03:27;19.80;;;6.97;;
64011;SDS011;50211;52.768;12.124;2022-12-24T01:05:59;18.03;;;6.50;;
64011;SDS011;50211;52.768;12.124;2022-12-24T01:08:28;20.63;;;7.83;;
64011;SDS011;50211;52.768;12.124;2022-12-24T01:10:54;25.83;;;7.33;;
64011;SDS011;50211;52.768;12.124;2022-12-24T01:13:19;18.17;;;7.00;;
64011;SDS011;50211;52.768;12.124;2022-12-24T01:15:45;16.87;;;7.13;;
64011;SDS011;50211;52.768;12.124;2022-12-24T01:18:10;18.63;;;6.53;;
64011;SDS011;50211;52.768;12.124;2022-12-24T01:20:36;19.10;;;6.57;;
64011;SDS011;50211;52.768;12.124;2022-12-24T01:23:01;19.83;;;6.77;;
64011;SDS011;50211;52.768;12.124;2022-12-24T01:25:27;15.97;;;5.93;;
64011;SDS011;50211;52.768;12.124;2022-12-24T01:27:52;22.97;;;6.80;;
64011;SDS011;50211;52.768;12.124;2022-12-24T01:30:18;17.63;;;7.07;;
64011;SDS011;50211;52.768;12.124;2022-12-24T01:32:43;16.37;;;6.70;;
64011;SDS011;50211;52.768;12.124;2022-12-24T01:35:09;18.33;;;6.13;;
64011;SDS011;50211;52.768;12.124;2022-12-24T01:37:35;24.00;;;7.27;;
64011;SDS011;50211;52.768;12.124;2022-12-24T01:40:00;17.97;;;6.83;;
64011;SDS011;50211;52.768;12.124;2022-12-24T01:42:46;14.67;;;6.00;;
64011;SDS011;50211;52.768;12.124;2022-12-24T01:45:39;19.17;;;6.93;;
64011;SDS011;50211;52.768;12.124;2022-12-24T01:48:15;22.03;;;6.77;;
64011;SDS011;50211;52.768;12.124;2022-12-24T01:50:47;17.17;;;5.93;;
64011;SDS011;50211;52.768;12.124;2022-12-24T01:53:17;19.20;;;6.87;;
64011;SDS011;50211;52.768;12.124;2022-12-24T01:55:43;19.13;;;6.43;;
64011;SDS011;50211;52.768;12.124;2022-12-24T01:58:09;16.63;;;6.40;;
64011;SDS011;50211;52.768;12.124;2022-12-24T02:00:37;15.33;;;6.47;;
64011;SDS011;50211;52.768;12.124;2022-12-24T02:03:02;16.90;;;6.10;;
64011;SDS011;50211;52.768;12.124;2022-12-24T02:05:30;14.70;;;6.30;;
64011;SDS011;50211;52.768;12.124;2022-12-24T02:07:57;16.93;;;6.73;;
64011;SDS011;50211;52.768;12.124;2022-12-24T02:10:24;17.87;;;6.53;;
64011;SDS011;50211;52.768;12.124;2022-12-24T02:12:49;16.13;;;5.93;;
64011;SDS011;50211;52.768;12.124;2022-12-24T02:15:16;13.87;;;5.90;;
64011;SDS011;50211;52.768;12.124;2022-12-24T02:17:50;16.37;;;5.50;;
64011;SDS011;50211;52.768;12.124;2022-12-24T02:28:38;16.83;;;6.80;;
64011;SDS011;50211;52.768;12.124;2022-12-24T02:31:08;16.73;;;6.43;;
64011;SDS011;50211;52.768;12.124;2022-12-24T02:36:20;15.63;;;5.90;;
64011;SDS011;50211;52.768;12.124;2022-12-24T02:39:09;18.17;;;6.63;;
64011;SDS011;50211;52.768;12.124;2022-12-24T02:41:39;21.77;;;7.87;;
64011;SDS011;50211;52.768;12.124;2022-12-24T02:44:27;17.87;;;6.60;;
64011;SDS011;50211;52.768;12.124;2022-12-24T02:46:56;24.10;;;6.97;;
64011;SDS011;50211;52.768;12.124;2022-12-24T02:49:23;21.27;;;7.07;;
64011;SDS011;50211;52.768;12.124;2022-12-24T02:51:48;22.20;;;6.57;;
64011;SDS011;50211;52.768;12.124;2022-12-24T02:54:14;16.73;;;7.57;;
64011;SDS011;50211;52.768;12.124;2022-12-24T02:59:43;16.13;;;6.50;;
64011;SDS011;50211;52.768;12.124;2022-12-24T03:02:36;21.63;;;6.87;;
64011;SDS011;50211;52.768;12.124;2022-12-24T03:08:01;21.27;;;6.43;;
64011;SDS011;50211;52.768;12.124;2022-12-24T03:10:39;15.83;;;6.67;;
64011;SDS011;50211;52.768;12.124;2022-12-24T03:13:25;19.23;;;6.63;;
64011;SDS011;50211;52.768;12.124;2022-12-24T03:15:52;13.37;;;5.70;;
64011;SDS011;50211;52.768;12.124;2022-12-24T03:18:19;19.70;;;6.77;;
64011;SDS011;50211;52.768;12.124;2022-12-24T03:20:49;17.33;;;7.13;;
64011;SDS011;50211;52.768;12.124;2022-12-24T03:23:17;15.33;;;6.33;;
64011;SDS011;50211;52.768;12.124;2022-12-24T03:25:43;20.03;;;6.63;;
64011;SDS011;50211;52.768;12.124;2022-12-24T03:28:10;20.50;;;7.10;;
64011;SDS011;50211;52.768;12.124;2022-12-24T03:30:40;15.20;;;6.93;;
64011;SDS011;50211;52.768;12.124;2022-12-24T03:33:06;19.97;;;7.27;;
64011;SDS011;50211;52.768;12.124;2022-12-24T03:35:32;20.83;;;7.53;;
64011;SDS011;50211;52.768;12.124;2022-12-24T03:37:58;22.10;;;8.67;;
64011;SDS011;50211;52.768;12.124;2022-12-24T03:40:23;22.83;;;8.40;;
64011;SDS011;50211;52.768;12.124;2022-12-24T03:42:49;22.37;;;7.90;;
64011;SDS011;50211;52.768;12.124;2022-12-24T03:45:15;16.07;;;7.40;;
64011;SDS011;50211;52.768;12.124;2022-12-24T03:47:40;26.07;;;8.03;;
64011;SDS011;50211;52.768;12.124;2022-12-24T03:50:06;16.57;;;7.10;;
64011;SDS011;50211;52.768;12.124;2022-12-24T03:52:32;22.87;;;8.17;;
64011;SDS011;50211;52.768;12.124;2022-12-24T03:54:57;27.77;;;8.20;;
64011;SDS011;50211;52.768;12.124;2022-12-24T03:57:23;17.73;;;7.60;;
64011;SDS011;50211;52.768;12.124;2022-12-24T03:59:48;18.37;;;7.67;;
64011;SDS011;50211;52.768;12.124;2022-12-24T04:02:14;23.67;;;6.97;;
64011;SDS011;50211;52.768;12.124;2022-12-24T04:04:40;23.43;;;8.73;;
64011;SDS011;50211;52.768;12.124;2022-12-24T04:07:05;24.57;;;8.67;;
64011;SDS011;50211;52.768;12.124;2022-12-24T04:09:31;22.27;;;8.07;;
64011;SDS011;50211;52.768;12.124;2022-12-24T04:11:57;23.07;;;8.80;;
64011;SDS011;50211;52.768;12.124;2022-12-24T04:14:22;22.10;;;8.53;;
64011;SDS011;50211;52.768;12.124;2022-12-24T04:16:48;19.20;;;7.73;;
64011;SDS011;50211;52.768;12.124;2022-12-24T04:19:13;21.83;;;8.33;;
64011;SDS011;50211;52.768;12.124;2022-12-24T04:21:39;23.30;;;8.47;;
64011;SDS011;50211;52.768;12.124;2022-12-24T04:24:04;24.33;;;7.90;;
64011;SDS011;50211;52.768;12.124;2022-12-24T04:26:30;27.23;;;8.73;;
64011;SDS011;50211;52.768;12.124;2022-12-24T04:28:56;24.27;;;8.60;;
64011;SDS011;50211;52.768;12.124;2022-12-24T04:31:21;22.17;;;8.83;;
64011;SDS011;50211;52.768;12.124;2022-12-24T04:33:47;25.30;;;8.30;;
64011;SDS011;50211;52.768;12.124;2022-12-24T04:36:17;20.17;;;7.67;;
64011;SDS011;50211;52.768;12.124;2022-12-24T04:38:43;24.70;;;8.73;;
64011;SDS011;50211;52.768;12.124;2022-12-24T04:41:12;21.33;;;7.90;;
64011;SDS011;50211;52.768;12.124;2022-12-24T04:43:39;27.80;;;8.00;;
64011;SDS011;50211;52.768;12.124;2022-12-24T04:46:05;26.10;;;8.83;;
64011;SDS011;50211;52.768;12.124;2022-12-24T04:48:33;21.23;;;7.77;;
64011;SDS011;50211;52.768;12.124;2022-12-24T04:51:01;23.40;;;8.77;;
64011;SDS011;50211;52.768;12.124;2022-12-24T04:53:30;28.10;;;8.90;;
64011;SDS011;50211;52.768;12.124;2022-12-24T04:55:56;26.77;;;8.10;;
64011;SDS011;50211;52.768;12.124;2022-12-24T04:58:22;23.83;;;7.83;;
64011;SDS011;50211;52.768;12.124;2022-12-24T05:00:48;22.27;;;8.47;;
64011;SDS011;50211;52.768;12.124;2022-12-24T05:03:13;26.63;;;8.43;;
64011;SDS011;50211;52.768;12.124;2022-12-24T05:05:39;23.57;;;8.67;;
64011;SDS011;50211;52.768;12.124;2022-12-24T05:08:04;29.07;;;8.80;;
64011;SDS011;50211;52.768;12.124;2022-12-24T05:10:30;20.70;;;8.53;;
64011;SDS011;50211;52.768;12.124;2022-12-24T05:12:56;20.03;;;8.07;;
64011;SDS011;50211;52.768;12.124;2022-12-24T05:15:22;29.13;;;8.80;;
64011;SDS011;50211;52.768;12.124;2022-12-24T05:17:47;21.70;;;7.87;;
64011;SDS011;50211;52.768;12.124;2022-12-24T05:20:13;27.83;;;8.60;;
64011;SDS011;50211;52.768;12.124;2022-12-24T05:22:38;24.30;;;8.27;;
64011;SDS011;50211;52.768;12.124;2022-12-24T05:25:23;22.00;;;7.87;;
64011;SDS011;50211;52.768;12.124;2022-12-24T05:28:16;31.07;;;9.57;;
64011;SDS011;50211;52.768;12.124;2022-12-24T05:30:41;28.30;;;9.13;;
64011;SDS011;50211;52.768;12.124;2022-12-24T05:33:07;28.17;;;9.70;;
64011;SDS011;50211;52.768;12.124;2022-12-24T05:35:33;25.53;;;8.03;;
64011;SDS011;50211;52.768;12.124;2022-12-24T05:37:58;27.37;;;8.57;;
64011;SDS011;50211;52.768;12.124;2022-12-24T05:40:24;23.87;;;8.40;;
64011;SDS011;50211;52.768;12.124;2022-12-24T05:42:49;21.80;;;8.30;;
64011;SDS011;50211;52.768;12.124;2022-12-24T05:45:15;25.17;;;8.90;;
64011;SDS011;50211;52.768;12.124;2022-12-24T05:47:41;23.80;;;8.50;;
64011;SDS011;50211;52.768;12.124;2022-12-24T05:50:06;25.87;;;8.87;;
64011;SDS011;50211;52.768;12.124;2022-12-24T05:52:32;25.67;;;8.77;;
64011;SDS011;50211;52.768;12.124;2022-12-24T05:54:58;26.53;;;8.60;;
64011;SDS011;50211;52.768;12.124;2022-12-24T05:57:23;25.00;;;8.93;;
64011;SDS011;50211;52.768;12.124;2022-12-24T05:59:49;23.83;;;8.40;;
64011;SDS011;50211;52.768;12.124;2022-12-24T06:02:14;27.43;;;9.33;;
64011;SDS011;50211;52.768;12.124;2022-12-24T06:04:40;26.67;;;8.93;;
64011;SDS011;50211;52.768;12.124;2022-12-24T06:07:05;27.43;;;9.60;;
64011;SDS011;50211;52.768;12.124;2022-12-24T06:09:31;29.70;;;9.63;;
64011;SDS011;50211;52.768;12.124;2022-12-24T06:11:57;28.53;;;9.20;;
64011;SDS011;50211;52.768;12.124;2022-12-24T06:14:22;24.17;;;9.43;;
64011;SDS011;50211;52.768;12.124;2022-12-24T06:16:48;30.27;;;10.53;;
64011;SDS011;50211;52.768;12.124;2022-12-24T06:19:13;35.53;;;9.47;;
64011;SDS011;50211;52.768;12.124;2022-12-24T06:21:39;25.17;;;9.17;;
64011;SDS011;50211;52.768;12.124;2022-12-24T06:24:04;23.17;;;9.43;;
64011;SDS011;50211;52.768;12.124;2022-12-24T06:26:30;25.50;;;9.27;;
64011;SDS011;50211;52.768;12.124;2022-12-24T06:28:55;26.07;;;9.37;;
64011;SDS011;50211;52.768;12.124;2022-12-24T06:31:21;29.03;;;9.73;;
64011;SDS011;50211;52.768;12.124;2022-12-24T06:33:47;22.77;;;8.10;;
64011;SDS011;50211;52.768;12.124;2022-12-24T06:36:15;35.07;;;9.93;;
64011;SDS011;50211;52.768;12.124;2022-12-24T06:38:46;29.37;;;9.90;;
64011;SDS011;50211;52.768;12.124;2022-12-24T06:41:12;28.50;;;9.00;;
64011;SDS011;50211;52.768;12.124;2022-12-24T06:43:39;31.67;;;10.17;;
64011;SDS011;50211;52.768;12.124;2022-12-24T06:46:07;28.33;;;9.13;;
64011;SDS011;50211;52.768;12.124;2022-12-24T06:48:33;33.07;;;10.20;;
64011;SDS011;50211;52.768;12.124;2022-12-24T06:51:00;27.87;;;9.57;;
64011;SDS011;50211;52.768;12.124;2022-12-24T06:53:27;28.70;;;9.20;;
64011;SDS011;50211;52.768;12.124;2022-12-24T06:55:52;23.30;;;8.20;;
64011;SDS011;50211;52.768;12.124;2022-12-24T06:58:24;30.73;;;10.20;;
64011;SDS011;50211;52.768;12.124;2022-12-24T07:00:50;31.37;;;10.30;;
64011;SDS011;50211;52.768;12.124;2022-12-24T07:03:15;26.50;;;9.27;;
64011;SDS011;50211;52.768;12.124;2022-12-24T07:05:41;27.33;;;10.33;;
64011;SDS011;50211;52.768;12.124;2022-12-24T07:08:07;25.80;;;9.00;;
64011;SDS011;50211;52.768;12.124;2022-12-24T07:10:32;36.17;;;9.80;;
64011;SDS011;50211;52.768;12.124;2022-12-24T07:12:58;25.37;;;9.07;;
64011;SDS011;50211;52.768;12.124;2022-12-24T07:15:23;30.83;;;10.03;;
64011;SDS011;50211;52.768;12.124;2022-12-24T07:17:49;27.70;;;9.77;;
64011;SDS011;50211;52.768;12.124;2022-12-24T07:20:14;30.67;;;9.23;;
64011;SDS011;50211;52.768;12.124;2022-12-24T07:22:40;26.63;;;9.10;;
64011;SDS011;50211;52.768;12.124;2022-12-24T07:25:06;30.40;;;9.50;;
64011;SDS011;50211;52.768;12.124;2022-12-24T07:27:32;27.00;;;9.13;;
64011;SDS011;50211;52.768;12.124;2022-12-24T07:29:58;29.63;;;9.87;;
64011;SDS011;50211;52.768;12.124;2022-12-24T07:32:23;27.90;;;10.17;;
64011;SDS011;50211;52.768;12.124;2022-12-24T07:34:49;33.53;;;10.10;;
64011;SDS011;50211;52.768;12.124;2022-12-24T07:37:14;33.63;;;10.40;;
64011;SDS011;50211;52.768;12.124;2022-12-24T07:39:40;33.33;;;10.00;;
64011;SDS011;50211;52.768;12.124;2022-12-24T07:42:05;35.20;;;10.57;;
64011;SDS011;50211;52.768;12.124;2022-12-24T07:44:32;26.97;;;9.33;;
64011;SDS011;50211;52.768;12.124;2022-12-24T07:46:58;29.07;;;8.93;;
64011;SDS011;50211;52.768;12.124;2022-12-24T07:49:23;29.70;;;9.93;;
64011;SDS011;50211;52.768;12.124;2022-12-24T07:51:49;24.17;;;8.37;;
64011;SDS011;50211;52.768;12.124;2022-12-24T07:54:14;27.63;;;9.30;;
64011;SDS011;50211;52.768;12.124;2022-12-24T07:56:40;34.70;;;8.43;;
64011;SDS011;50211;52.768;12.124;2022-12-24T07:59:06;25.50;;;8.87;;
64011;SDS011;50211;52.768;12.124;2022-12-24T08:01:32;23.43;;;8.10;;
64011;SDS011;50211;52.768;12.124;2022-12-24T08:03:57;21.80;;;8.50;;
64011;SDS011;50211;52.768;12.124;2022-12-24T08:06:23;21.37;;;8.43;;
64011;SDS011;50211;52.768;12.124;2022-12-24T08:08:48;21.40;;;7.60;;
64011;SDS011;50211;52.768;12.124;2022-12-24T08:11:14;27.47;;;8.73;;
64011;SDS011;50211;52.768;12.124;2022-12-24T08:13:40;25.30;;;7.57;;
64011;SDS011;50211;52.768;12.124;2022-12-24T08:16:05;22.93;;;7.47;;
64011;SDS011;50211;52.768;12.124;2022-12-24T08:18:31;19.10;;;7.60;;
64011;SDS011;50211;52.768;12.124;2022-12-24T08:20:56;18.33;;;7.27;;
64011;SDS011;50211;52.768;12.124;2022-12-24T08:23:22;24.93;;;8.27;;
64011;SDS011;50211;52.768;12.124;2022-12-24T08:25:48;19.37;;;8.23;;
64011;SDS011;50211;52.768;12.124;2022-12-24T08:28:15;28.40;;;9.37;;
64011;SDS011;50211;52.768;12.124;2022-12-24T08:30:42;22.80;;;7.80;;
64011;SDS011;50211;52.768;12.124;2022-12-24T08:33:08;20.87;;;8.00;;
64011;SDS011;50211;52.768;12.124;2022-12-24T08:35:33;17.17;;;7.90;;
64011;SDS011;50211;52.768;12.124;2022-12-24T08:37:59;19.73;;;8.00;;
64011;SDS011;50211;52.768;12.124;2022-12-24T08:40:25;21.40;;;7.47;;
64011;SDS011;50211;52.768;12.124;2022-12-24T08:42:50;21.70;;;7.80;;
64011;SDS011;50211;52.768;12.124;2022-12-24T08:45:16;16.87;;;7.37;;
64011;SDS011;50211;52.768;12.124;2022-12-24T08:47:42;22.43;;;8.07;;
64011;SDS011;50211;52.768;12.124;2022-12-24T08:50:07;21.60;;;8.40;;
64011;SDS011;50211;52.768;12.124;2022-12-24T08:52:33;21.43;;;9.63;;
64011;SDS011;50211;52.768;12.124;2022-12-24T08:54:59;22.20;;;7.87;;
64011;SDS011;50211;52.768;12.124;2022-12-24T08:57:25;21.20;;;8.07;;
64011;SDS011;50211;52.768;12.124;2022-12-24T08:59:51;24.40;;;7.80;;
64011;SDS011;50211;52.768;12.124;2022-12-24T09:02:16;21.70;;;8.47;;
64011;SDS011;50211;52.768;12.124;2022-12-24T09:04:42;20.90;;;8.73;;
64011;SDS011;50211;52.768;12.124;2022-12-24T09:07:07;20.43;;;7.07;;
64011;SDS011;50211;52.768;12.124;2022-12-24T09:09:34;16.87;;;7.37;;
64011;SDS011;50211;52.768;12.124;2022-12-24T09:12:00;23.13;;;7.53;;
64011;SDS011;50211;52.768;12.124;2022-12-24T09:14:26;18.30;;;7.43;;
64011;SDS011;50211;52.768;12.124;2022-12-24T09:16:51;17.63;;;7.03;;
64011;SDS011;50211;52.768;12.124;2022-12-24T09:19:17;19.67;;;7.67;;
64011;SDS011;50211;52.768;12.124;2022-12-24T09:21:42;17.30;;;7.47;;
64011;SDS011;50211;52.768;12.124;2022-12-24T09:24:09;19.00;;;6.30;;
64011;SDS011;50211;52.768;12.124;2022-12-24T09:26:34;24.50;;;7.23;;
64011;SDS011;50211;52.768;12.124;2022-12-24T09:29:00;20.83;;;7.47;;
64011;SDS011;50211;52.768;12.124;2022-12-24T09:31:26;17.60;;;6.60;;
64011;SDS011;50211;52.768;12.124;2022-12-24T09:33:52;19.17;;;7.03;;
64011;SDS011;50211;52.768;12.124;2022-12-24T09:36:19;22.93;;;7.87;;
64011;SDS011;50211;52.768;12.124;2022-12-24T09:38:45;21.20;;;7.70;;
64011;SDS011;50211;52.768;12.124;2022-12-24T09:41:13;15.07;;;6.63;;
64011;SDS011;50211;52.768;12.124;2022-12-24T09:43:39;17.90;;;7.47;;
64011;SDS011;50211;52.768;12.124;2022-12-24T09:46:20;17.60;;;6.83;;
64011;SDS011;50211;52.768;12.124;2022-12-24T09:48:50;16.97;;;7.47;;
64011;SDS011;50211;52.768;12.124;2022-12-24T09:51:22;17.23;;;6.77;;
64011;SDS011;50211;52.768;12.124;2022-12-24T09:53:51;17.13;;;7.57;;
64011;SDS011;50211;52.768;12.124;2022-12-24T09:56:22;18.80;;;7.73;;
64011;SDS011;50211;52.768;12.124;2022-12-24T09:58:59;20.60;;;7.90;;
64011;SDS011;50211;52.768;12.124;2022-12-24T10:01:28;18.10;;;7.03;;
64011;SDS011;50211;52.768;12.124;2022-12-24T10:03:56;21.97;;;7.80;;
64011;SDS011;50211;52.768;12.124;2022-12-24T10:06:26;19.27;;;7.53;;
64011;SDS011;50211;52.768;12.124;2022-12-24T10:09:21;19.67;;;7.20;;
64011;SDS011;50211;52.768;12.124;2022-12-24T10:14:48;20.10;;;7.37;;
64011;SDS011;50211;52.768;12.124;2022-12-24T10:18:01;22.83;;;7.53;;
64011;SDS011;50211;52.768;12.124;2022-12-24T10:20:43;17.77;;;7.77;;
64011;SDS011;50211;52.768;12.124;2022-12-24T10:23:27;18.37;;;7.70;;
64011;SDS011;50211;52.768;12.124;2022-12-24T10:28:39;18.00;;;7.70;;
64011;SDS011;50211;52.768;12.124;2022-12-24T10:31:12;20.60;;;8.57;;
64011;SDS011;50211;52.768;12.124;2022-12-24T10:33:43;17.80;;;7.77;;
64011;SDS011;50211;52.768;12.124;2022-12-24T10:36:15;23.50;;;8.97;;
64011;SDS011;50211;52.768;12.124;2022-12-24T10:38:43;22.20;;;8.97;;
64011;SDS011;50211;52.768;12.124;2022-12-24T10:41:09;22.60;;;8.63;;
64011;SDS011;50211;52.768;12.124;2022-12-24T10:43:35;20.73;;;8.33;;
64011;SDS011;50211;52.768;12.124;2022-12-24T10:46:05;23.53;;;9.03;;
64011;SDS011;50211;52.768;12.124;2022-12-24T10:48:44;21.07;;;8.87;;
64011;SDS011;50211;52.768;12.124;2022-12-24T10:51:25;26.47;;;7.67;;
64011;SDS011;50211;52.768;12.124;2022-12-24T10:54:15;18.97;;;8.20;;
64011;SDS011;50211;52.768;12.124;2022-12-24T10:56:50;24.57;;;9.30;;
64011;SDS011;50211;52.768;12.124;2022-12-24T10:59:21;18.00;;;7.97;;
64011;SDS011;50211;52.768;12.124;2022-12-24T11:01:54;21.87;;;8.60;;
64011;SDS011;50211;52.768;12.124;2022-12-24T11:04:23;21.03;;;8.17;;
64011;SDS011;50211;52.768;12.124;2022-12-24T11:06:57;22.70;;;9.33;;
64011;SDS011;50211;52.768;12.124;2022-12-24T11:09:35;18.63;;;7.80;;
64011;SDS011;50211;52.768;12.124;2022-12-24T11:12:14;21.13;;;9.17;;
64011;SDS011;50211;52.768;12.124;2022-12-24T11:14:43;18.07;;;8.50;;
64011;SDS011;50211;52.768;12.124;2022-12-24T11:17:17;20.53;;;8.10;;
64011;SDS011;50211;52.768;12.124;2022-12-24T11:19:47;20.60;;;8.60;;
64011;SDS011;50211;52.768;12.124;2022-12-24T11:22:22;17.40;;;8.40;;
64011;SDS011;50211;52.768;12.124;2022-12-24T11:25:33;20.93;;;7.70;;
64011;SDS011;50211;52.768;12.124;2022-12-24T11:27:46;21.87;;;8.10;;
64011;SDS011;50211;52.768;12.124;2022-12-24T11:32:41;29.83;;;11.17;;
64011;SDS011;50211;52.768;12.124;2022-12-24T11:35:30;19.93;;;8.93;;
64011;SDS011;50211;52.768;12.124;2022-12-24T11:40:24;22.27;;;8.63;;
64011;SDS011;50211;52.768;12.124;2022-12-24T11:43:18;22.90;;;8.80;;
64011;SDS011;50211;52.768;12.124;2022-12-24T11:45:52;24.35;;;9.63;;
64011;SDS011;50211;52.768;12.124;2022-12-24T11:48:32;23.92;;;8.45;;
64011;SDS011;50211;52.768;12.124;2022-12-24T11:51:06;18.27;;;8.68;;
64011;SDS011;50211;52.768;12.124;2022-12-24T11:53:44;22.02;;;9.82;;
64011;SDS011;50211;52.768;12.124;2022-12-24T11:56:27;22.00;;;9.18;;
64011;SDS011;50211;52.768;12.124;2022-12-24T11:59:10;25.25;;;11.10;;
64011;SDS011;50211;52.768;12.124;2022-12-24T12:01:49;18.48;;;9.15;;
64011;SDS011;50211;52.768;12.124;2022-12-24T12:04:35;18.52;;;8.80;;
64011;SDS011;50211;52.768;12.124;2022-12-24T12:07:09;19.85;;;8.38;;
64011;SDS011;50211;52.768;12.124;2022-12-24T12:09:43;19.60;;;8.02;;
64011;SDS011;50211;52.768;12.124;2022-12-24T12:12:18;16.75;;;7.68;;
64011;SDS011;50211;52.768;12.124;2022-12-24T12:14:49;27.30;;;12.88;;
64011;SDS011;50211;52.768;12.124;2022-12-24T12:17:31;42.17;;;17.35;;
64011;SDS011;50211;52.768;12.124;2022-12-24T12:20:12;25.52;;;12.00;;
64011;SDS011;50211;52.768;12.124;2022-12-24T12:25:42;21.23;;;9.60;;
64011;SDS011;50211;52.768;12.124;2022-12-24T12:29:04;21.88;;;10.38;;
64011;SDS011;50211;52.768;12.124;2022-12-24T12:34:05;34.63;;;19.70;;
64011;SDS011;50211;52.768;12.124;2022-12-24T12:36:56;22.83;;;7.68;;
64011;SDS011;50211;52.768;12.124;2022-12-24T12:39:28;24.90;;;11.18;;
64011;SDS011;50211;52.768;12.124;2022-12-24T12:53:02;26.08;;;5.32;;
64011;SDS011;50211;52.768;12.124;2022-12-24T12:55:40;32.35;;;6.28;;
64011;SDS011;50211;52.768;12.124;2022-12-24T12:58:22;19.90;;;3.92;;
64011;SDS011;50211;52.768;12.124;2022-12-24T13:00:57;20.90;;;4.45;;
64011;SDS011;50211;52.768;12.124;2022-12-24T13:03:39;26.73;;;5.63;;
64011;SDS011;50211;52.768;12.124;2022-12-24T13:09:56;22.38;;;3.63;;
64011;SDS011;50211;52.768;12.124;2022-12-24T13:21:17;23.45;;;4.95;;
64011;SDS011;50211;52.768;12.124;2022-12-24T13:23:49;15.65;;;3.33;;
64011;SDS011;50211;52.768;12.124;2022-12-24T13:26:15;20.35;;;4.32;;
64011;SDS011;50211;52.768;12.124;2022-12-24T13:28:41;22.80;;;4.95;;
64011;SDS011;50211;52.768;12.124;2022-12-24T13:36:12;16.13;;;4.88;;
64011;SDS011;50211;52.768;12.124;2022-12-24T13:38:43;21.60;;;4.38;;
64011;SDS011;50211;52.768;12.124;2022-12-24T13:49:30;20.92;;;4.18;;
64011;SDS011;50211;52.768;12.124;2022-12-24T13:52:07;15.70;;;4.00;;
64011;SDS011;50211;52.768;12.124;2022-12-24T13:57:36;15.65;;;4.05;;
64011;SDS011;50211;52.768;12.124;2022-12-24T14:05:47;17.85;;;3.85;;
64011;SDS011;50211;52.768;12.124;2022-12-24T14:16:03;15.70;;;3.47;;
64011;SDS011;50211;52.768;12.124;2022-12-24T14:18:41;14.20;;;3.17;;
64011;SDS011;50211;52.768;12.124;2022-12-24T14:21:17;16.80;;;3.03;;
64011;SDS011;50211;52.768;12.124;2022-12-24T14:23:50;17.83;;;3.80;;
64011;SDS011;50211;52.768;12.124;2022-12-24T14:26:32;18.92;;;3.25;;
64011;SDS011;50211;52.768;12.124;2022-12-24T14:29:06;17.15;;;3.58;;
64011;SDS011;50211;52.768;12.124;2022-12-24T14:31:51;17.80;;;3.33;;
64011;SDS011;50211;52.768;12.124;2022-12-24T14:34:18;13.07;;;2.90;;
64011;SDS011;50211;52.768;12.124;2022-12-24T14:36:43;18.37;;;3.17;;
64011;SDS011;50211;52.768;12.124;2022-12-24T14:39:15;17.30;;;2.90;;
64011;SDS011;50211;52.768;12.124;2022-12-24T14:44:46;18.87;;;7.50;;
64011;SDS011;50211;52.768;12.124;2022-12-24T14:47:58;23.03;;;4.00;;
64011;SDS011;50211;52.768;12.124;2022-12-24T14:56:20;17.27;;;3.93;;
64011;SDS011;50211;52.768;12.124;2022-12-24T14:58:49;24.07;;;8.33;;
64011;SDS011;50211;52.768;12.124;2022-12-24T15:01:28;18.20;;;3.60;;
64011;SDS011;50211;52.768;12.124;2022-12-24T15:04:04;25.92;;;6.15;;
64011;SDS011;50211;52.768;12.124;2022-12-24T15:06:40;15.10;;;4.40;;
64011;SDS011;50211;52.768;12.124;2022-12-24T15:09:18;21.88;;;8.52;;
64011;SDS011;50211;52.768;12.124;2022-12-24T15:11:48;12.73;;;3.27;;
64011;SDS011;50211;52.768;12.124;2022-12-24T15:14:16;20.63;;;4.83;;
64011;SDS011;50211;52.768;12.124;2022-12-24T15:16:51;18.47;;;4.57;;
64011;SDS011;50211;52.768;12.124;2022-12-24T15:19:21;23.57;;;6.40;;
64011;SDS011;50211;52.768;12.124;2022-12-24T15:21:50;19.30;;;6.77;;
64011;SDS011;50211;52.768;12.124;2022-12-24T15:24:26;18.10;;;5.07;;
64011;SDS011;50211;52.768;12.124;2022-12-24T15:26:56;21.00;;;5.80;;
64011;SDS011;50211;52.768;12.124;2022-12-24T15:29:23;27.88;;;5.22;;
64011;SDS011;50211;52.768;12.124;2022-12-24T15:31:56;22.13;;;4.87;;
64011;SDS011;50211;52.768;12.124;2022-12-24T15:34:24;27.45;;;5.45;;
64011;SDS011;50211;52.768;12.124;2022-12-24T15:36:51;20.27;;;4.57;;
64011;SDS011;50211;52.768;12.124;2022-12-24T15:39:17;28.10;;;5.47;;
64011;SDS011;50211;52.768;12.124;2022-12-24T15:41:43;18.87;;;4.50;;
64011;SDS011;50211;52.768;12.124;2022-12-24T15:44:28;13.90;;;4.57;;
64011;SDS011;50211;52.768;12.124;2022-12-24T15:46:59;29.07;;;4.80;;
64011;SDS011;50211;52.768;12.124;2022-12-24T15:49:26;20.83;;;5.00;;
64011;SDS011;50211;52.768;12.124;2022-12-24T15:52:00;20.47;;;5.00;;
64011;SDS011;50211;52.768;12.124;2022-12-24T15:54:27;20.17;;;4.60;;
64011;SDS011;50211;52.768;12.124;2022-12-24T15:56:53;31.57;;;7.90;;
64011;SDS011;50211;52.768;12.124;2022-12-24T16:01:52;36.30;;;8.47;;
64011;SDS011;50211;52.768;12.124;2022-12-24T16:04:22;20.23;;;6.50;;
64011;SDS011;50211;52.768;12.124;2022-12-24T16:06:51;17.00;;;6.17;;
64011;SDS011;50211;52.768;12.124;2022-12-24T16:11:59;20.73;;;5.27;;
64011;SDS011;50211;52.768;12.124;2022-12-24T16:14:25;20.83;;;4.60;;
64011;SDS011;50211;52.768;12.124;2022-12-24T16:16:51;20.23;;;5.90;;